sensor_id;sensor_type;location;lat;lon;timestamp;P1;durP1;ratioP1;P2;durP2;ratioP2
69008;SDS011;56065;52.472;13.380;2023-08-20T00:01:23;13.87;;;10.17;;
69008;SDS011;56065;52.472;13.380;2023-08-20T00:03:50;14.77;;;10.00;;
69008;SDS011;56065;52.472;13.380;2023-08-20T00:06:17;13.48;;;10.00;;
69008;SDS011;56065;52.472;13.380;2023-08-20T00:08:42;17.23;;;10.93;;
69008;SDS011;56065;52.472;13.380;2023-08-20T00:11:08;14.73;;;10.45;;
69008;SDS011;56065;52.472;13.380;2023-08-20T00:13:33;14.50;;;10.33;;
69008;SDS011;56065;52.472;13.380;2023-08-20T00:15:59;14.07;;;9.63;;
69008;SDS011;56065;52.472;13.380;2023-08-20T00:18:24;19.05;;;10.95;;
69008;SDS011;56065;52.472;13.380;2023-08-20T00:20:50;14.77;;;9.88;;
69008;SDS011;56065;52.472;13.380;2023-08-20T00:23:16;14.00;;;10.00;;
69008;SDS011;56065;52.472;13.380;2023-08-20T00:25:43;15.88;;;11.05;;
69008;SDS011;56065;52.472;13.380;2023-08-20T00:28:09;13.40;;;10.18;;
69008;SDS011;56065;52.472;13.380;2023-08-20T00:30:34;15.93;;;10.13;;
69008;SDS011;56065;52.472;13.380;2023-08-20T00:32:59;14.10;;;10.30;;
69008;SDS011;56065;52.472;13.380;2023-08-20T00:35:25;16.20;;;10.90;;
69008;SDS011;56065;52.472;13.380;2023-08-20T00:37:50;15.47;;;10.93;;
69008;SDS011;56065;52.472;13.380;2023-08-20T00:40:15;14.13;;;10.30;;
69008;SDS011;56065;52.472;13.380;2023-08-20T00:42:41;14.88;;;10.45;;
69008;SDS011;56065;52.472;13.380;2023-08-20T00:45:06;14.37;;;9.87;;
69008;SDS011;56065;52.472;13.380;2023-08-20T00:47:32;15.03;;;9.97;;
69008;SDS011;56065;52.472;13.380;2023-08-20T00:49:57;15.10;;;10.07;;
69008;SDS011;56065;52.472;13.380;2023-08-20T00:52:23;12.73;;;9.73;;
69008;SDS011;56065;52.472;13.380;2023-08-20T00:54:49;14.20;;;10.33;;
69008;SDS011;56065;52.472;13.380;2023-08-20T00:57:15;13.65;;;9.25;;
69008;SDS011;56065;52.472;13.380;2023-08-20T00:59:43;14.98;;;9.90;;
69008;SDS011;56065;52.472;13.380;2023-08-20T01:02:09;15.00;;;9.90;;
69008;SDS011;56065;52.472;13.380;2023-08-20T01:04:35;16.33;;;10.87;;
69008;SDS011;56065;52.472;13.380;2023-08-20T01:09:57;15.68;;;10.18;;
69008;SDS011;56065;52.472;13.380;2023-08-20T01:12:38;13.32;;;9.30;;
69008;SDS011;56065;52.472;13.380;2023-08-20T01:15:04;14.27;;;9.57;;
69008;SDS011;56065;52.472;13.380;2023-08-20T01:17:29;13.73;;;9.97;;
69008;SDS011;56065;52.472;13.380;2023-08-20T01:19:56;14.73;;;10.02;;
69008;SDS011;56065;52.472;13.380;2023-08-20T01:25:12;14.40;;;9.35;;
69008;SDS011;56065;52.472;13.380;2023-08-20T01:27:58;13.23;;;9.18;;
69008;SDS011;56065;52.472;13.380;2023-08-20T01:30:44;14.50;;;9.23;;
69008;SDS011;56065;52.472;13.380;2023-08-20T01:33:11;16.25;;;10.27;;
69008;SDS011;56065;52.472;13.380;2023-08-20T01:35:37;13.88;;;9.20;;
69008;SDS011;56065;52.472;13.380;2023-08-20T01:38:03;16.53;;;9.83;;
69008;SDS011;56065;52.472;13.380;2023-08-20T01:40:28;14.18;;;9.32;;
69008;SDS011;56065;52.472;13.380;2023-08-20T01:42:55;14.43;;;9.13;;
69008;SDS011;56065;52.472;13.380;2023-08-20T01:45:20;13.70;;;8.93;;
69008;SDS011;56065;52.472;13.380;2023-08-20T01:47:46;14.45;;;9.43;;
69008;SDS011;56065;52.472;13.380;2023-08-20T01:50:12;15.33;;;9.07;;
69008;SDS011;56065;52.472;13.380;2023-08-20T01:52:37;14.77;;;8.60;;
69008;SDS011;56065;52.472;13.380;2023-08-20T01:55:03;13.63;;;8.80;;
69008;SDS011;56065;52.472;13.380;2023-08-20T01:57:29;14.65;;;9.20;;
69008;SDS011;56065;52.472;13.380;2023-08-20T01:59:54;17.37;;;9.00;;
69008;SDS011;56065;52.472;13.380;2023-08-20T02:02:19;14.67;;;8.90;;
69008;SDS011;56065;52.472;13.380;2023-08-20T02:04:45;12.70;;;8.75;;
69008;SDS011;56065;52.472;13.380;2023-08-20T02:07:10;13.10;;;8.87;;
69008;SDS011;56065;52.472;13.380;2023-08-20T02:09:36;11.83;;;8.40;;
69008;SDS011;56065;52.472;13.380;2023-08-20T02:12:01;13.97;;;8.83;;
69008;SDS011;56065;52.472;13.380;2023-08-20T02:14:27;12.75;;;8.38;;
69008;SDS011;56065;52.472;13.380;2023-08-20T02:16:53;13.85;;;8.35;;
69008;SDS011;56065;52.472;13.380;2023-08-20T02:19:19;14.30;;;8.37;;
69008;SDS011;56065;52.472;13.380;2023-08-20T02:21:44;12.63;;;8.53;;
69008;SDS011;56065;52.472;13.380;2023-08-20T02:24:09;14.40;;;8.83;;
69008;SDS011;56065;52.472;13.380;2023-08-20T02:26:35;13.73;;;8.93;;
69008;SDS011;56065;52.472;13.380;2023-08-20T02:29:00;13.03;;;8.77;;
69008;SDS011;56065;52.472;13.380;2023-08-20T02:31:25;13.60;;;8.30;;
69008;SDS011;56065;52.472;13.380;2023-08-20T02:33:51;14.07;;;8.97;;
69008;SDS011;56065;52.472;13.380;2023-08-20T02:36:16;13.52;;;9.18;;
69008;SDS011;56065;52.472;13.380;2023-08-20T02:38:41;16.23;;;8.87;;
69008;SDS011;56065;52.472;13.380;2023-08-20T02:41:07;12.27;;;8.30;;
69008;SDS011;56065;52.472;13.380;2023-08-20T02:43:32;14.00;;;8.73;;
69008;SDS011;56065;52.472;13.380;2023-08-20T02:45:57;13.50;;;8.30;;
69008;SDS011;56065;52.472;13.380;2023-08-20T02:48:23;13.83;;;8.83;;
69008;SDS011;56065;52.472;13.380;2023-08-20T02:50:55;12.20;;;7.93;;
69008;SDS011;56065;52.472;13.380;2023-08-20T02:53:21;14.35;;;8.52;;
69008;SDS011;56065;52.472;13.380;2023-08-20T02:55:46;12.88;;;8.65;;
69008;SDS011;56065;52.472;13.380;2023-08-20T02:58:12;12.60;;;7.80;;
69008;SDS011;56065;52.472;13.380;2023-08-20T03:00:37;13.80;;;8.17;;
69008;SDS011;56065;52.472;13.380;2023-08-20T03:03:03;12.50;;;7.57;;
69008;SDS011;56065;52.472;13.380;2023-08-20T03:05:32;14.60;;;8.03;;
69008;SDS011;56065;52.472;13.380;2023-08-20T03:07:58;16.98;;;8.50;;
69008;SDS011;56065;52.472;13.380;2023-08-20T03:10:23;15.13;;;8.23;;
69008;SDS011;56065;52.472;13.380;2023-08-20T03:12:49;14.30;;;7.80;;
69008;SDS011;56065;52.472;13.380;2023-08-20T03:15:14;13.07;;;8.73;;
69008;SDS011;56065;52.472;13.380;2023-08-20T03:17:40;12.60;;;7.90;;
69008;SDS011;56065;52.472;13.380;2023-08-20T03:20:05;16.40;;;8.03;;
69008;SDS011;56065;52.472;13.380;2023-08-20T03:22:31;15.13;;;8.30;;
69008;SDS011;56065;52.472;13.380;2023-08-20T03:24:57;14.07;;;7.88;;
69008;SDS011;56065;52.472;13.380;2023-08-20T03:27:22;11.47;;;7.67;;
69008;SDS011;56065;52.472;13.380;2023-08-20T03:29:48;11.53;;;7.87;;
69008;SDS011;56065;52.472;13.380;2023-08-20T03:32:13;12.80;;;8.97;;
69008;SDS011;56065;52.472;13.380;2023-08-20T03:34:39;15.13;;;7.80;;
69008;SDS011;56065;52.472;13.380;2023-08-20T03:37:04;14.10;;;8.03;;
69008;SDS011;56065;52.472;13.380;2023-08-20T03:39:30;13.38;;;8.10;;
69008;SDS011;56065;52.472;13.380;2023-08-20T03:41:56;15.18;;;8.35;;
69008;SDS011;56065;52.472;13.380;2023-08-20T03:44:22;13.43;;;8.40;;
69008;SDS011;56065;52.472;13.380;2023-08-20T03:46:47;14.57;;;8.43;;
69008;SDS011;56065;52.472;13.380;2023-08-20T03:49:13;15.73;;;8.83;;
69008;SDS011;56065;52.472;13.380;2023-08-20T03:51:38;13.37;;;8.57;;
69008;SDS011;56065;52.472;13.380;2023-08-20T03:54:04;15.03;;;8.43;;
69008;SDS011;56065;52.472;13.380;2023-08-20T03:56:29;15.93;;;8.77;;
69008;SDS011;56065;52.472;13.380;2023-08-20T03:58:55;13.97;;;8.03;;
69008;SDS011;56065;52.472;13.380;2023-08-20T04:01:21;13.80;;;8.10;;
69008;SDS011;56065;52.472;13.380;2023-08-20T04:03:46;13.88;;;8.38;;
69008;SDS011;56065;52.472;13.380;2023-08-20T04:06:12;14.32;;;8.25;;
69008;SDS011;56065;52.472;13.380;2023-08-20T04:08:38;17.20;;;8.80;;
69008;SDS011;56065;52.472;13.380;2023-08-20T04:11:03;14.80;;;8.07;;
69008;SDS011;56065;52.472;13.380;2023-08-20T04:13:29;12.97;;;7.80;;
69008;SDS011;56065;52.472;13.380;2023-08-20T04:15:55;17.15;;;7.97;;
69008;SDS011;56065;52.472;13.380;2023-08-20T04:18:20;13.95;;;8.27;;
69008;SDS011;56065;52.472;13.380;2023-08-20T04:20:46;12.73;;;7.67;;
69008;SDS011;56065;52.472;13.380;2023-08-20T04:23:11;15.77;;;8.10;;
69008;SDS011;56065;52.472;13.380;2023-08-20T04:25:36;13.23;;;7.27;;
69008;SDS011;56065;52.472;13.380;2023-08-20T04:28:02;15.93;;;8.47;;
69008;SDS011;56065;52.472;13.380;2023-08-20T04:30:27;14.90;;;8.75;;
69008;SDS011;56065;52.472;13.380;2023-08-20T04:32:53;13.60;;;8.43;;
69008;SDS011;56065;52.472;13.380;2023-08-20T04:35:18;14.03;;;8.30;;
69008;SDS011;56065;52.472;13.380;2023-08-20T04:37:43;15.67;;;8.50;;
69008;SDS011;56065;52.472;13.380;2023-08-20T04:40:09;14.37;;;8.40;;
69008;SDS011;56065;52.472;13.380;2023-08-20T04:42:35;14.05;;;8.20;;
69008;SDS011;56065;52.472;13.380;2023-08-20T04:45:00;14.90;;;8.93;;
69008;SDS011;56065;52.472;13.380;2023-08-20T04:47:25;14.27;;;7.90;;
69008;SDS011;56065;52.472;13.380;2023-08-20T04:49:51;13.13;;;8.43;;
69008;SDS011;56065;52.472;13.380;2023-08-20T04:52:16;15.47;;;9.57;;
69008;SDS011;56065;52.472;13.380;2023-08-20T04:54:41;15.20;;;8.07;;
69008;SDS011;56065;52.472;13.380;2023-08-20T04:57:07;13.27;;;8.70;;
69008;SDS011;56065;52.472;13.380;2023-08-20T04:59:32;16.70;;;9.40;;
69008;SDS011;56065;52.472;13.380;2023-08-20T05:01:57;14.70;;;9.00;;
69008;SDS011;56065;52.472;13.380;2023-08-20T05:04:23;14.13;;;9.27;;
69008;SDS011;56065;52.472;13.380;2023-08-20T05:06:48;16.73;;;9.50;;
69008;SDS011;56065;52.472;13.380;2023-08-20T05:09:14;15.23;;;9.57;;
69008;SDS011;56065;52.472;13.380;2023-08-20T05:11:41;19.77;;;9.68;;
69008;SDS011;56065;52.472;13.380;2023-08-20T05:14:06;17.70;;;9.60;;
69008;SDS011;56065;52.472;13.380;2023-08-20T05:16:31;16.30;;;9.93;;
69008;SDS011;56065;52.472;13.380;2023-08-20T05:18:57;16.55;;;9.55;;
69008;SDS011;56065;52.472;13.380;2023-08-20T05:21:22;16.73;;;9.47;;
69008;SDS011;56065;52.472;13.380;2023-08-20T05:23:47;14.27;;;9.33;;
69008;SDS011;56065;52.472;13.380;2023-08-20T05:26:13;14.70;;;9.13;;
69008;SDS011;56065;52.472;13.380;2023-08-20T05:28:38;14.07;;;9.07;;
69008;SDS011;56065;52.472;13.380;2023-08-20T05:31:03;18.83;;;9.37;;
69008;SDS011;56065;52.472;13.380;2023-08-20T05:33:29;15.10;;;9.07;;
69008;SDS011;56065;52.472;13.380;2023-08-20T05:35:55;15.23;;;9.37;;
69008;SDS011;56065;52.472;13.380;2023-08-20T05:38:20;15.45;;;9.10;;
69008;SDS011;56065;52.472;13.380;2023-08-20T05:40:46;16.00;;;9.57;;
69008;SDS011;56065;52.472;13.380;2023-08-20T05:43:11;15.97;;;9.77;;
69008;SDS011;56065;52.472;13.380;2023-08-20T05:45:36;17.47;;;9.73;;
69008;SDS011;56065;52.472;13.380;2023-08-20T05:48:02;14.77;;;9.37;;
69008;SDS011;56065;52.472;13.380;2023-08-20T05:50:27;14.50;;;8.97;;
69008;SDS011;56065;52.472;13.380;2023-08-20T05:52:52;15.63;;;8.77;;
69008;SDS011;56065;52.472;13.380;2023-08-20T05:55:18;15.38;;;9.00;;
69008;SDS011;56065;52.472;13.380;2023-08-20T05:57:43;15.93;;;9.50;;
69008;SDS011;56065;52.472;13.380;2023-08-20T06:00:09;17.90;;;10.40;;
69008;SDS011;56065;52.472;13.380;2023-08-20T06:02:35;14.90;;;8.63;;
69008;SDS011;56065;52.472;13.380;2023-08-20T06:05:01;14.00;;;9.05;;
69008;SDS011;56065;52.472;13.380;2023-08-20T06:07:29;14.57;;;8.73;;
69008;SDS011;56065;52.472;13.380;2023-08-20T06:09:55;13.87;;;8.30;;
69008;SDS011;56065;52.472;13.380;2023-08-20T06:12:21;15.82;;;9.38;;
69008;SDS011;56065;52.472;13.380;2023-08-20T06:14:47;13.60;;;8.17;;
69008;SDS011;56065;52.472;13.380;2023-08-20T06:17:12;15.43;;;8.07;;
69008;SDS011;56065;52.472;13.380;2023-08-20T06:19:38;15.13;;;8.83;;
69008;SDS011;56065;52.472;13.380;2023-08-20T06:22:03;16.63;;;8.73;;
69008;SDS011;56065;52.472;13.380;2023-08-20T06:24:29;12.63;;;8.03;;
69008;SDS011;56065;52.472;13.380;2023-08-20T06:26:54;15.55;;;8.95;;
69008;SDS011;56065;52.472;13.380;2023-08-20T06:29:19;13.03;;;8.20;;
69008;SDS011;56065;52.472;13.380;2023-08-20T06:31:46;14.48;;;8.32;;
69008;SDS011;56065;52.472;13.380;2023-08-20T06:34:12;16.00;;;8.60;;
69008;SDS011;56065;52.472;13.380;2023-08-20T06:36:37;13.63;;;8.50;;
69008;SDS011;56065;52.472;13.380;2023-08-20T06:39:03;13.60;;;8.70;;
69008;SDS011;56065;52.472;13.380;2023-08-20T06:41:28;14.13;;;8.43;;
69008;SDS011;56065;52.472;13.380;2023-08-20T06:43:54;16.17;;;8.50;;
69008;SDS011;56065;52.472;13.380;2023-08-20T06:46:19;13.03;;;8.30;;
69008;SDS011;56065;52.472;13.380;2023-08-20T06:48:44;13.47;;;8.17;;
69008;SDS011;56065;52.472;13.380;2023-08-20T06:51:13;14.80;;;7.82;;
69008;SDS011;56065;52.472;13.380;2023-08-20T06:53:40;18.50;;;9.10;;
69008;SDS011;56065;52.472;13.380;2023-08-20T06:56:06;13.50;;;8.80;;
69008;SDS011;56065;52.472;13.380;2023-08-20T06:58:33;15.82;;;9.32;;
69008;SDS011;56065;52.472;13.380;2023-08-20T07:00:58;15.40;;;8.53;;
69008;SDS011;56065;52.472;13.380;2023-08-20T07:03:32;14.65;;;8.52;;
69008;SDS011;56065;52.472;13.380;2023-08-20T07:05:58;13.53;;;8.90;;
69008;SDS011;56065;52.472;13.380;2023-08-20T07:08:24;15.32;;;9.43;;
69008;SDS011;56065;52.472;13.380;2023-08-20T07:10:49;14.50;;;8.70;;
69008;SDS011;56065;52.472;13.380;2023-08-20T07:13:15;15.97;;;9.83;;
69008;SDS011;56065;52.472;13.380;2023-08-20T07:15:40;15.33;;;8.83;;
69008;SDS011;56065;52.472;13.380;2023-08-20T07:18:05;14.90;;;10.35;;
69008;SDS011;56065;52.472;13.380;2023-08-20T07:20:31;17.00;;;9.30;;
69008;SDS011;56065;52.472;13.380;2023-08-20T07:22:56;15.80;;;9.37;;
69008;SDS011;56065;52.472;13.380;2023-08-20T07:25:21;16.30;;;9.77;;
69008;SDS011;56065;52.472;13.380;2023-08-20T07:27:47;17.17;;;9.70;;
69008;SDS011;56065;52.472;13.380;2023-08-20T07:30:12;15.97;;;8.50;;
69008;SDS011;56065;52.472;13.380;2023-08-20T07:32:38;14.80;;;8.93;;
69008;SDS011;56065;52.472;13.380;2023-08-20T07:35:03;15.57;;;8.93;;
69008;SDS011;56065;52.472;13.380;2023-08-20T07:37:29;15.70;;;9.32;;
69008;SDS011;56065;52.472;13.380;2023-08-20T07:39:54;15.67;;;9.73;;
69008;SDS011;56065;52.472;13.380;2023-08-20T07:42:20;14.37;;;9.17;;
69008;SDS011;56065;52.472;13.380;2023-08-20T07:44:45;15.20;;;8.93;;
69008;SDS011;56065;52.472;13.380;2023-08-20T07:47:10;13.07;;;8.27;;
69008;SDS011;56065;52.472;13.380;2023-08-20T07:49:36;16.07;;;8.90;;
69008;SDS011;56065;52.472;13.380;2023-08-20T07:52:01;11.90;;;8.30;;
69008;SDS011;56065;52.472;13.380;2023-08-20T07:54:27;15.82;;;7.75;;
69008;SDS011;56065;52.472;13.380;2023-08-20T07:56:53;12.35;;;7.93;;
69008;SDS011;56065;52.472;13.380;2023-08-20T07:59:19;11.07;;;7.20;;
69008;SDS011;56065;52.472;13.380;2023-08-20T08:01:44;12.00;;;6.73;;
69008;SDS011;56065;52.472;13.380;2023-08-20T08:04:09;10.87;;;6.87;;
69008;SDS011;56065;52.472;13.380;2023-08-20T08:06:35;10.43;;;7.20;;
69008;SDS011;56065;52.472;13.380;2023-08-20T08:09:19;11.25;;;7.20;;
69008;SDS011;56065;52.472;13.380;2023-08-20T08:11:51;10.43;;;6.93;;
69008;SDS011;56065;52.472;13.380;2023-08-20T08:14:17;10.13;;;6.40;;
69008;SDS011;56065;52.472;13.380;2023-08-20T08:16:42;10.07;;;6.57;;
69008;SDS011;56065;52.472;13.380;2023-08-20T08:19:07;10.13;;;7.23;;
69008;SDS011;56065;52.472;13.380;2023-08-20T08:21:33;10.60;;;6.80;;
69008;SDS011;56065;52.472;13.380;2023-08-20T08:23:58;10.30;;;6.25;;
69008;SDS011;56065;52.472;13.380;2023-08-20T08:26:24;9.83;;;6.33;;
69008;SDS011;56065;52.472;13.380;2023-08-20T08:28:49;9.27;;;6.57;;
69008;SDS011;56065;52.472;13.380;2023-08-20T08:31:14;8.87;;;6.43;;
69008;SDS011;56065;52.472;13.380;2023-08-20T08:33:39;7.90;;;5.77;;
69008;SDS011;56065;52.472;13.380;2023-08-20T08:36:05;9.53;;;6.27;;
69008;SDS011;56065;52.472;13.380;2023-08-20T08:38:30;8.07;;;5.87;;
69008;SDS011;56065;52.472;13.380;2023-08-20T08:40:56;8.70;;;5.63;;
69008;SDS011;56065;52.472;13.380;2023-08-20T08:43:22;9.50;;;6.57;;
69008;SDS011;56065;52.472;13.380;2023-08-20T08:45:47;10.52;;;8.05;;
69008;SDS011;56065;52.472;13.380;2023-08-20T08:48:13;8.48;;;5.82;;
69008;SDS011;56065;52.472;13.380;2023-08-20T08:50:39;8.97;;;6.77;;
69008;SDS011;56065;52.472;13.380;2023-08-20T08:53:05;9.82;;;6.20;;
69008;SDS011;56065;52.472;13.380;2023-08-20T08:55:32;9.15;;;5.15;;
69008;SDS011;56065;52.472;13.380;2023-08-20T08:57:57;7.57;;;6.00;;
69008;SDS011;56065;52.472;13.380;2023-08-20T09:00:23;8.00;;;5.50;;
69008;SDS011;56065;52.472;13.380;2023-08-20T09:02:48;7.80;;;5.30;;
69008;SDS011;56065;52.472;13.380;2023-08-20T09:05:14;7.85;;;5.60;;
69008;SDS011;56065;52.472;13.380;2023-08-20T09:07:42;9.33;;;5.40;;
69008;SDS011;56065;52.472;13.380;2023-08-20T09:10:09;9.07;;;5.75;;
69008;SDS011;56065;52.472;13.380;2023-08-20T09:12:35;7.57;;;4.83;;
69008;SDS011;56065;52.472;13.380;2023-08-20T09:15:01;7.57;;;4.90;;
69008;SDS011;56065;52.472;13.380;2023-08-20T09:17:27;8.43;;;4.75;;
69008;SDS011;56065;52.472;13.380;2023-08-20T09:19:54;8.25;;;4.25;;
69008;SDS011;56065;52.472;13.380;2023-08-20T09:22:23;7.80;;;4.50;;
69008;SDS011;56065;52.472;13.380;2023-08-20T09:24:53;8.32;;;4.30;;
69008;SDS011;56065;52.472;13.380;2023-08-20T09:27:20;7.77;;;4.80;;
69008;SDS011;56065;52.472;13.380;2023-08-20T09:29:53;6.95;;;4.60;;
69008;SDS011;56065;52.472;13.380;2023-08-20T09:32:22;7.40;;;4.28;;
69008;SDS011;56065;52.472;13.380;2023-08-20T09:34:48;7.13;;;4.63;;
69008;SDS011;56065;52.472;13.380;2023-08-20T09:37:15;6.65;;;4.20;;
69008;SDS011;56065;52.472;13.380;2023-08-20T09:39:42;6.47;;;3.60;;
69008;SDS011;56065;52.472;13.380;2023-08-20T09:42:08;8.07;;;4.10;;
69008;SDS011;56065;52.472;13.380;2023-08-20T09:44:35;6.30;;;3.73;;
69008;SDS011;56065;52.472;13.380;2023-08-20T09:47:02;7.45;;;4.07;;
69008;SDS011;56065;52.472;13.380;2023-08-20T09:49:31;8.48;;;4.10;;
69008;SDS011;56065;52.472;13.380;2023-08-20T09:52:01;8.15;;;3.83;;
69008;SDS011;56065;52.472;13.380;2023-08-20T09:57:01;6.37;;;3.60;;
69008;SDS011;56065;52.472;13.380;2023-08-20T09:59:29;12.38;;;8.65;;
69008;SDS011;56065;52.472;13.380;2023-08-20T10:01:55;8.85;;;6.13;;
69008;SDS011;56065;52.472;13.380;2023-08-20T10:04:22;63.40;;;52.50;;
69008;SDS011;56065;52.472;13.380;2023-08-20T10:06:48;7.07;;;4.90;;
69008;SDS011;56065;52.472;13.380;2023-08-20T10:09:14;5.60;;;3.90;;
69008;SDS011;56065;52.472;13.380;2023-08-20T10:11:41;7.97;;;4.88;;
69008;SDS011;56065;52.472;13.380;2023-08-20T10:14:07;6.47;;;4.13;;
69008;SDS011;56065;52.472;13.380;2023-08-20T10:16:32;5.38;;;3.72;;
69008;SDS011;56065;52.472;13.380;2023-08-20T10:19:01;8.43;;;4.47;;
69008;SDS011;56065;52.472;13.380;2023-08-20T10:21:31;6.57;;;4.07;;
69008;SDS011;56065;52.472;13.380;2023-08-20T10:23:56;5.30;;;3.58;;
69008;SDS011;56065;52.472;13.380;2023-08-20T10:26:22;5.63;;;4.03;;
69008;SDS011;56065;52.472;13.380;2023-08-20T10:28:49;6.38;;;4.05;;
69008;SDS011;56065;52.472;13.380;2023-08-20T10:31:16;6.50;;;3.90;;
69008;SDS011;56065;52.472;13.380;2023-08-20T10:33:54;6.13;;;3.70;;
69008;SDS011;56065;52.472;13.380;2023-08-20T10:36:21;6.75;;;4.40;;
69008;SDS011;56065;52.472;13.380;2023-08-20T10:38:50;6.95;;;4.47;;
69008;SDS011;56065;52.472;13.380;2023-08-20T10:41:15;6.73;;;4.10;;
69008;SDS011;56065;52.472;13.380;2023-08-20T10:43:47;6.78;;;3.53;;
69008;SDS011;56065;52.472;13.380;2023-08-20T10:48:50;4.78;;;3.55;;
69008;SDS011;56065;52.472;13.380;2023-08-20T10:51:33;5.40;;;3.70;;
69008;SDS011;56065;52.472;13.380;2023-08-20T10:59:10;7.00;;;3.75;;
69008;SDS011;56065;52.472;13.380;2023-08-20T11:01:44;6.40;;;3.78;;
69008;SDS011;56065;52.472;13.380;2023-08-20T11:04:11;5.57;;;4.20;;
69008;SDS011;56065;52.472;13.380;2023-08-20T11:06:37;5.72;;;4.07;;
69008;SDS011;56065;52.472;13.380;2023-08-20T11:09:04;5.60;;;4.23;;
69008;SDS011;56065;52.472;13.380;2023-08-20T11:11:30;5.20;;;3.30;;
69008;SDS011;56065;52.472;13.380;2023-08-20T11:13:56;5.75;;;3.97;;
69008;SDS011;56065;52.472;13.380;2023-08-20T11:16:22;6.17;;;4.30;;
69008;SDS011;56065;52.472;13.380;2023-08-20T11:18:47;6.80;;;4.20;;
69008;SDS011;56065;52.472;13.380;2023-08-20T11:21:12;6.27;;;3.63;;
69008;SDS011;56065;52.472;13.380;2023-08-20T11:23:38;6.10;;;3.37;;
69008;SDS011;56065;52.472;13.380;2023-08-20T11:26:07;5.25;;;3.60;;
69008;SDS011;56065;52.472;13.380;2023-08-20T11:28:32;5.80;;;4.00;;
69008;SDS011;56065;52.472;13.380;2023-08-20T11:30:58;5.30;;;3.30;;
69008;SDS011;56065;52.472;13.380;2023-08-20T11:33:23;6.37;;;3.60;;
69008;SDS011;56065;52.472;13.380;2023-08-20T11:35:49;5.85;;;3.67;;
69008;SDS011;56065;52.472;13.380;2023-08-20T11:38:16;5.00;;;3.20;;
69008;SDS011;56065;52.472;13.380;2023-08-20T11:40:41;5.73;;;3.50;;
69008;SDS011;56065;52.472;13.380;2023-08-20T11:43:07;6.30;;;3.70;;
69008;SDS011;56065;52.472;13.380;2023-08-20T11:45:32;7.72;;;4.20;;
69008;SDS011;56065;52.472;13.380;2023-08-20T11:47:58;5.67;;;3.27;;
69008;SDS011;56065;52.472;13.380;2023-08-20T11:50:24;5.70;;;3.53;;
69008;SDS011;56065;52.472;13.380;2023-08-20T11:52:51;5.63;;;3.70;;
69008;SDS011;56065;52.472;13.380;2023-08-20T11:55:21;6.88;;;3.50;;
69008;SDS011;56065;52.472;13.380;2023-08-20T11:57:49;5.87;;;3.63;;
69008;SDS011;56065;52.472;13.380;2023-08-20T12:00:27;5.75;;;3.13;;
69008;SDS011;56065;52.472;13.380;2023-08-20T12:02:53;6.30;;;3.25;;
69008;SDS011;56065;52.472;13.380;2023-08-20T12:05:20;5.95;;;3.45;;
69008;SDS011;56065;52.472;13.380;2023-08-20T12:07:56;4.93;;;3.38;;
69008;SDS011;56065;52.472;13.380;2023-08-20T12:10:26;6.90;;;3.27;;
69008;SDS011;56065;52.472;13.380;2023-08-20T12:12:54;6.07;;;3.50;;
69008;SDS011;56065;52.472;13.380;2023-08-20T12:15:20;4.80;;;2.78;;
69008;SDS011;56065;52.472;13.380;2023-08-20T12:17:59;6.05;;;3.08;;
69008;SDS011;56065;52.472;13.380;2023-08-20T12:20:32;5.93;;;3.20;;
69008;SDS011;56065;52.472;13.380;2023-08-20T12:22:59;6.27;;;3.30;;
69008;SDS011;56065;52.472;13.380;2023-08-20T12:25:26;4.80;;;2.70;;
69008;SDS011;56065;52.472;13.380;2023-08-20T12:27:52;6.03;;;2.92;;
69008;SDS011;56065;52.472;13.380;2023-08-20T12:30:17;6.50;;;2.90;;
69008;SDS011;56065;52.472;13.380;2023-08-20T12:32:43;5.53;;;2.93;;
69008;SDS011;56065;52.472;13.380;2023-08-20T12:35:08;6.20;;;2.75;;
69008;SDS011;56065;52.472;13.380;2023-08-20T12:37:33;6.10;;;2.60;;
69008;SDS011;56065;52.472;13.380;2023-08-20T12:39:59;5.37;;;2.87;;
69008;SDS011;56065;52.472;13.380;2023-08-20T12:42:24;6.27;;;2.90;;
69008;SDS011;56065;52.472;13.380;2023-08-20T12:44:50;4.60;;;2.77;;
69008;SDS011;56065;52.472;13.380;2023-08-20T12:47:15;5.68;;;2.58;;
69008;SDS011;56065;52.472;13.380;2023-08-20T12:49:40;6.60;;;2.47;;
69008;SDS011;56065;52.472;13.380;2023-08-20T12:52:06;6.43;;;2.80;;
69008;SDS011;56065;52.472;13.380;2023-08-20T12:54:31;4.87;;;2.03;;
69008;SDS011;56065;52.472;13.380;2023-08-20T12:56:57;5.55;;;2.33;;
69008;SDS011;56065;52.472;13.380;2023-08-20T12:59:22;5.50;;;2.10;;
69008;SDS011;56065;52.472;13.380;2023-08-20T13:01:48;8.33;;;2.20;;
69008;SDS011;56065;52.472;13.380;2023-08-20T13:04:13;4.63;;;2.35;;
69008;SDS011;56065;52.472;13.380;2023-08-20T13:06:39;5.83;;;2.40;;
69008;SDS011;56065;52.472;13.380;2023-08-20T13:09:05;4.33;;;1.87;;
69008;SDS011;56065;52.472;13.380;2023-08-20T13:11:32;4.47;;;2.13;;
69008;SDS011;56065;52.472;13.380;2023-08-20T13:13:57;4.63;;;2.13;;
69008;SDS011;56065;52.472;13.380;2023-08-20T13:16:23;3.83;;;1.60;;
69008;SDS011;56065;52.472;13.380;2023-08-20T13:18:49;5.35;;;1.85;;
69008;SDS011;56065;52.472;13.380;2023-08-20T13:21:15;4.05;;;1.73;;
69008;SDS011;56065;52.472;13.380;2023-08-20T13:23:40;4.03;;;2.03;;
69008;SDS011;56065;52.472;13.380;2023-08-20T13:26:06;3.27;;;1.53;;
69008;SDS011;56065;52.472;13.380;2023-08-20T13:28:31;5.47;;;1.83;;
69008;SDS011;56065;52.472;13.380;2023-08-20T13:30:57;4.38;;;1.70;;
69008;SDS011;56065;52.472;13.380;2023-08-20T13:33:22;4.23;;;1.60;;
69008;SDS011;56065;52.472;13.380;2023-08-20T13:35:48;5.37;;;1.70;;
69008;SDS011;56065;52.472;13.380;2023-08-20T13:38:13;5.47;;;1.90;;
69008;SDS011;56065;52.472;13.380;2023-08-20T13:40:39;7.60;;;2.13;;
69008;SDS011;56065;52.472;13.380;2023-08-20T13:43:04;4.80;;;1.47;;
69008;SDS011;56065;52.472;13.380;2023-08-20T13:45:29;5.87;;;1.57;;
69008;SDS011;56065;52.472;13.380;2023-08-20T13:47:56;5.22;;;1.70;;
69008;SDS011;56065;52.472;13.380;2023-08-20T13:50:21;4.63;;;1.60;;
69008;SDS011;56065;52.472;13.380;2023-08-20T13:52:46;4.13;;;1.60;;
69008;SDS011;56065;52.472;13.380;2023-08-20T13:55:12;4.47;;;1.48;;
69008;SDS011;56065;52.472;13.380;2023-08-20T13:57:38;5.47;;;1.70;;
69008;SDS011;56065;52.472;13.380;2023-08-20T14:00:03;4.07;;;1.40;;
69008;SDS011;56065;52.472;13.380;2023-08-20T14:02:37;4.65;;;1.60;;
69008;SDS011;56065;52.472;13.380;2023-08-20T14:05:02;4.93;;;1.40;;
69008;SDS011;56065;52.472;13.380;2023-08-20T14:07:32;8.25;;;1.50;;
69008;SDS011;56065;52.472;13.380;2023-08-20T14:10:01;5.18;;;1.80;;
69008;SDS011;56065;52.472;13.380;2023-08-20T14:12:29;3.83;;;1.60;;
69008;SDS011;56065;52.472;13.380;2023-08-20T14:14:54;3.73;;;1.40;;
69008;SDS011;56065;52.472;13.380;2023-08-20T14:17:20;5.00;;;1.63;;
69008;SDS011;56065;52.472;13.380;2023-08-20T14:19:45;5.10;;;1.73;;
69008;SDS011;56065;52.472;13.380;2023-08-20T14:22:11;6.10;;;1.60;;
69008;SDS011;56065;52.472;13.380;2023-08-20T14:24:36;4.87;;;1.67;;
69008;SDS011;56065;52.472;13.380;2023-08-20T14:27:02;5.45;;;1.98;;
69008;SDS011;56065;52.472;13.380;2023-08-20T14:29:28;5.50;;;1.87;;
69008;SDS011;56065;52.472;13.380;2023-08-20T14:31:53;5.57;;;1.70;;
69008;SDS011;56065;52.472;13.380;2023-08-20T14:34:18;4.40;;;1.50;;
69008;SDS011;56065;52.472;13.380;2023-08-20T14:36:44;14.03;;;7.50;;